CheckWX is a tool to help pilots better visualize weather data.  It is not intended as a substitute for an official pre-flight weather briefing.

21:24:57 UTC

KHZD METAR
Carroll County Airport
Huntingdon, Tennessee, USA
Current

10 mins ago

KHZD 222115Z AUTO 28010G17KT 240V300 10SM CLR 17/02 A3000 RMK A01
Observed
Oct-22 @ 21:15 UTC
Wind
  • 280° at 10 KTS
  • Gusting to 17 KTS
Visibility
10 SM
Flight Rules
VFR
Cloud Levels
  • Clear skies
Temperature
17°C / 63°F
Dewpoint
C / 36°F
Humidity
37%
Altimeter
30" Hg
Pressure
1015.92 hPa
Previous

30 mins ago

KHZD 222055Z AUTO 27012G19KT 10SM CLR 17/02 A3000 RMK A01
Observed
Oct-22 @ 20:55 UTC
Wind
  • 270° at 12 KTS
  • Gusting to 19 KTS
Visibility
10 SM
Flight Rules
VFR
Cloud Levels
  • Clear skies
Temperature
17°C / 63°F
Dewpoint
C / 36°F
Humidity
37%
Altimeter
30" Hg
Pressure
1015.92 hPa
Previous

50 mins ago

KHZD 222035Z AUTO 26014KT 10SM CLR 17/03 A2999 RMK A01
Observed
Oct-22 @ 20:35 UTC
Wind
  • 260° at 14 KTS
Visibility
10 SM
Flight Rules
VFR
Cloud Levels
  • Clear skies
Temperature
17°C / 63°F
Dewpoint
C / 37°F
Humidity
39%
Altimeter
29.99" Hg
Pressure
1015.62 hPa